createdAt,value
2023-04-19T00:01:52.059Z,19.90
2023-04-19T00:04:21.221Z,14.43
2023-04-19T00:06:52.361Z,10.07
2023-04-19T00:09:21.187Z,17.43
2023-04-19T00:11:51.307Z,15.03
2023-04-19T00:14:19.581Z,14.20
2023-04-19T00:16:47.748Z,16.90
2023-04-19T00:19:16.344Z,15.13
2023-04-19T00:21:44.883Z,11.67
2023-04-19T00:24:16.390Z,12.60
2023-04-19T00:26:45.359Z,18.10
2023-04-19T00:29:13.953Z,11.73
2023-04-19T00:31:42.356Z,16.03
2023-04-19T00:34:10.770Z,14.63
2023-04-19T00:36:41.923Z,14.27
2023-04-19T00:39:11.990Z,13.60
2023-04-19T00:41:43.414Z,12.47
2023-04-19T00:44:11.821Z,11.10
2023-04-19T00:46:40.969Z,12.03
2023-04-19T00:49:10.282Z,9.83
2023-04-19T00:51:39.250Z,13.43
2023-04-19T00:54:08.597Z,18.60
2023-04-19T00:56:36.664Z,13.07
2023-04-19T00:59:05.117Z,13.23
2023-04-19T01:01:34.570Z,12.87
2023-04-19T01:04:03.050Z,12.00
2023-04-19T01:06:35.286Z,16.43
2023-04-19T01:09:03.597Z,11.67
2023-04-19T01:11:32.003Z,11.27
2023-04-19T01:14:00.256Z,14.70
2023-04-19T01:16:30.326Z,13.07
2023-04-19T01:18:58.825Z,12.60
2023-04-19T01:21:29.881Z,14.53
2023-04-19T01:23:58.060Z,16.77
2023-04-19T01:26:27.242Z,18.33
2023-04-19T01:28:55.439Z,14.73
2023-04-19T01:31:23.629Z,26.87
2023-04-19T01:33:51.822Z,20.13
2023-04-19T01:36:20.058Z,21.57
2023-04-19T01:38:48.531Z,17.57
2023-04-19T01:41:17.107Z,18.10
2023-04-19T01:43:45.087Z,18.60
2023-04-19T01:46:13.194Z,19.90
2023-04-19T01:48:41.699Z,19.47
2023-04-19T01:51:10.364Z,15.80
2023-04-19T01:53:38.567Z,14.47
2023-04-19T01:56:07.567Z,17.67
2023-04-19T01:58:35.987Z,17.47
2023-04-19T02:01:04.142Z,13.97
2023-04-19T02:03:33.247Z,21.40
2023-04-19T02:06:02.440Z,19.33
2023-04-19T02:08:34.384Z,18.70
2023-04-19T02:11:08.550Z,26.53
2023-04-19T02:13:37.262Z,24.87
2023-04-19T02:16:08.274Z,16.10
2023-04-19T02:18:40.902Z,21.27
2023-04-19T02:21:11.383Z,22.03
2023-04-19T02:23:39.604Z,16.40
2023-04-19T02:26:07.721Z,23.93
2023-04-19T02:28:36.017Z,15.93
2023-04-19T02:31:07.688Z,21.07
2023-04-19T02:33:36.647Z,25.93
2023-04-19T02:36:06.129Z,16.73
2023-04-19T02:38:35.393Z,24.77
2023-04-19T02:41:05.035Z,18.30
2023-04-19T02:43:33.751Z,23.10
2023-04-19T02:46:02.610Z,24.27
2023-04-19T02:48:30.845Z,18.53
2023-04-19T02:51:00.758Z,17.30
2023-04-19T02:53:30.082Z,31.10
2023-04-19T02:56:00.743Z,18.33
2023-04-19T02:58:29.332Z,23.33
2023-04-19T03:01:00.202Z,15.97
2023-04-19T03:03:29.473Z,20.93
2023-04-19T03:05:59.010Z,19.57
2023-04-19T03:08:27.740Z,21.37
2023-04-19T03:11:00.216Z,24.33
2023-04-19T03:13:29.383Z,20.00
2023-04-19T03:15:58.227Z,15.03
2023-04-19T03:18:26.497Z,29.77
2023-04-19T03:20:54.918Z,18.53
2023-04-19T03:23:23.479Z,17.80
2023-04-19T03:25:51.609Z,18.83
2023-04-19T03:28:22.040Z,19.23
2023-04-19T03:30:50.467Z,18.70
2023-04-19T03:33:18.905Z,21.33
2023-04-19T03:35:47.030Z,21.03
2023-04-19T03:38:15.249Z,30.37
2023-04-19T03:40:43.605Z,23.77
2023-04-19T03:43:12.101Z,17.27
2023-04-19T03:45:40.331Z,23.63
2023-04-19T03:48:08.688Z,16.33
2023-04-19T03:50:36.857Z,22.73
2023-04-19T03:53:06.103Z,20.27
2023-04-19T03:55:35.354Z,21.43
2023-04-19T03:58:03.755Z,22.67
2023-04-19T04:00:32.359Z,19.50
2023-04-19T04:03:00.616Z,14.27
2023-04-19T04:05:29.434Z,16.57
2023-04-19T04:07:58.437Z,25.37
2023-04-19T04:10:27.143Z,27.50
2023-04-19T04:12:55.333Z,17.67
2023-04-19T04:15:23.516Z,21.97
2023-04-19T04:17:51.990Z,26.83
2023-04-19T04:20:20.169Z,22.70
2023-04-19T04:22:48.270Z,23.70
2023-04-19T04:25:21.134Z,32.47
2023-04-19T04:27:53.449Z,23.00
2023-04-19T04:30:21.503Z,30.80
2023-04-19T04:32:51.635Z,29.97
2023-04-19T04:35:19.805Z,37.67
2023-04-19T04:37:49.118Z,37.67
2023-04-19T04:40:17.428Z,40.93
2023-04-19T04:42:46.247Z,46.87
2023-04-19T04:45:14.715Z,39.30
2023-04-19T04:47:43.013Z,37.27
2023-04-19T04:50:31.950Z,32.50
2023-04-19T04:53:00.029Z,51.73
2023-04-19T04:55:32.220Z,31.77
2023-04-19T04:58:00.626Z,49.43
2023-04-19T05:00:28.993Z,42.90
2023-04-19T05:02:57.580Z,31.30
2023-04-19T05:05:27.290Z,29.37
2023-04-19T05:07:58.857Z,37.73
2023-04-19T05:10:27.390Z,35.47
2023-04-19T05:12:55.858Z,42.87
2023-04-19T05:15:24.401Z,42.47
2023-04-19T05:17:52.808Z,28.87
2023-04-19T05:20:22.507Z,36.53
2023-04-19T05:22:51.062Z,30.23
2023-04-19T05:25:19.032Z,40.27
2023-04-19T05:27:49.101Z,45.00
2023-04-19T05:30:17.317Z,42.30
2023-04-19T05:32:45.258Z,42.03
2023-04-19T05:35:13.239Z,39.00
2023-04-19T05:37:42.321Z,39.50
2023-04-19T05:40:11.331Z,42.50
2023-04-19T05:42:39.925Z,35.37
2023-04-19T05:45:09.906Z,44.53
2023-04-19T05:47:38.877Z,42.77
2023-04-19T05:50:07.582Z,30.10
2023-04-19T05:52:36.123Z,32.73
2023-04-19T05:55:04.919Z,35.53
2023-04-19T05:57:33.983Z,48.37
2023-04-19T06:00:02.586Z,48.30
2023-04-19T06:02:31.527Z,49.23
2023-04-19T06:05:02.586Z,35.87
2023-04-19T06:07:40.715Z,30.70
2023-04-19T06:10:15.806Z,29.87
2023-04-19T06:12:44.070Z,36.07
2023-04-19T06:15:12.264Z,36.27
2023-04-19T06:17:43.481Z,40.63
2023-04-19T06:20:12.807Z,34.03
2023-04-19T06:22:49.162Z,34.93
2023-04-19T06:25:17.565Z,36.67
2023-04-19T06:27:49.216Z,40.97
2023-04-19T06:30:20.114Z,36.77
2023-04-19T06:32:48.413Z,34.43
2023-04-19T06:35:16.767Z,32.33
2023-04-19T06:37:45.255Z,48.50
2023-04-19T06:40:13.765Z,36.63
2023-04-19T06:42:42.113Z,36.37
2023-04-19T06:45:10.869Z,36.70
2023-04-19T06:47:39.657Z,28.27
2023-04-19T06:50:11.515Z,31.17
2023-04-19T06:52:40.587Z,35.13
2023-04-19T06:55:10.298Z,54.23
2023-04-19T06:57:38.996Z,45.77
2023-04-19T07:00:08.653Z,37.00
2023-04-19T07:02:37.159Z,41.97
2023-04-19T07:05:06.390Z,69.20
2023-04-19T07:07:34.761Z,67.80
2023-04-19T07:10:06.038Z,45.40
2023-04-19T07:12:34.144Z,40.70
2023-04-19T07:15:02.377Z,28.57
2023-04-19T07:17:31.954Z,24.73
2023-04-19T07:20:00.128Z,28.37
2023-04-19T07:22:28.238Z,24.77
2023-04-19T07:24:56.692Z,28.37
2023-04-19T07:27:27.106Z,20.63
2023-04-19T07:29:55.317Z,34.77
2023-04-19T07:32:23.326Z,44.07
2023-04-19T07:34:52.199Z,31.87
2023-04-19T07:37:20.433Z,24.90
2023-04-19T07:39:48.554Z,37.63
2023-04-19T07:42:16.813Z,35.27
2023-04-19T07:44:47.695Z,33.83
2023-04-19T07:47:16.015Z,31.47
2023-04-19T07:49:47.508Z,37.57
2023-04-19T07:52:15.786Z,34.33
2023-04-19T07:54:43.930Z,38.93
2023-04-19T07:57:12.247Z,24.20
2023-04-19T07:59:40.419Z,27.73
2023-04-19T08:02:12.496Z,39.83
2023-04-19T08:04:41.142Z,56.43
2023-04-19T08:07:10.022Z,43.23
2023-04-19T08:09:38.326Z,34.00
2023-04-19T08:12:06.654Z,31.50
2023-04-19T08:14:43.706Z,25.43
2023-04-19T08:19:50.916Z,29.80
2023-04-19T08:22:20.956Z,29.30
2023-04-19T08:24:53.098Z,31.00
2023-04-19T08:27:22.289Z,39.63
2023-04-19T08:29:53.486Z,32.80
2023-04-19T08:32:24.019Z,28.37
2023-04-19T08:34:52.073Z,40.53
2023-04-19T08:37:20.390Z,38.47
2023-04-19T08:39:48.291Z,33.53
2023-04-19T08:42:28.661Z,29.97
2023-04-19T08:47:48.221Z,33.57
2023-04-19T08:50:33.123Z,30.90
2023-04-19T08:53:24.024Z,50.47
2023-04-19T08:56:14.739Z,33.13
2023-04-19T09:01:33.780Z,56.17
2023-04-19T09:04:26.086Z,36.87
2023-04-19T09:06:56.669Z,28.50
2023-04-19T09:09:37.056Z,38.00
2023-04-19T09:12:18.813Z,24.70
2023-04-19T09:17:19.646Z,40.53
2023-04-19T09:19:49.926Z,30.33
2023-04-19T09:22:20.005Z,25.13
2023-04-19T09:27:27.497Z,26.93
2023-04-19T09:30:03.704Z,27.03
2023-04-19T09:32:47.924Z,21.70
2023-04-19T09:35:16.316Z,25.37
2023-04-19T09:38:05.786Z,31.00
2023-04-19T09:40:38.819Z,23.50
2023-04-19T09:43:33.044Z,31.17
2023-04-19T09:45:58.192Z,31.80
2023-04-19T09:48:26.821Z,33.30
2023-04-19T09:51:03.796Z,31.00
2023-04-19T09:53:37.433Z,29.27
2023-04-19T09:56:06.673Z,33.50
2023-04-19T09:58:48.983Z,35.77
2023-04-19T10:01:21.021Z,30.27
2023-04-19T10:03:51.505Z,34.73
2023-04-19T10:08:56.175Z,31.10
2023-04-19T10:11:27.706Z,38.23
2023-04-19T10:13:58.409Z,27.53
2023-04-19T10:16:27.629Z,31.70
2023-04-19T10:18:56.087Z,34.00
2023-04-19T10:21:24.416Z,29.40
2023-04-19T10:23:52.511Z,25.60
2023-04-19T10:26:22.965Z,35.27
2023-04-19T10:28:51.226Z,29.83
2023-04-19T10:31:24.332Z,27.00
2023-04-19T10:33:58.474Z,32.87
2023-04-19T10:36:28.603Z,30.47
2023-04-19T10:38:57.306Z,56.40
2023-04-19T10:41:58.452Z,38.83
2023-04-19T10:44:26.296Z,47.77
2023-04-19T10:46:55.093Z,34.43
2023-04-19T10:49:48.432Z,30.07
2023-04-19T10:52:32.147Z,32.63
2023-04-19T10:55:05.133Z,32.97
2023-04-19T10:58:04.082Z,51.43
2023-04-19T11:00:33.686Z,34.77
2023-04-19T11:03:42.052Z,24.80
2023-04-19T11:06:20.518Z,35.47
2023-04-19T11:08:48.386Z,29.13
2023-04-19T11:11:17.196Z,37.87
2023-04-19T11:13:48.251Z,33.73
2023-04-19T11:16:18.314Z,31.83
2023-04-19T11:18:49.533Z,23.87
2023-04-19T11:21:20.823Z,26.87
2023-04-19T11:23:50.406Z,38.70
2023-04-19T11:26:18.749Z,66.27
2023-04-19T11:28:48.098Z,42.10
2023-04-19T11:31:16.306Z,32.43
2023-04-19T11:33:44.521Z,42.97
2023-04-19T11:36:13.749Z,22.17
2023-04-19T11:38:41.819Z,34.67
2023-04-19T11:41:09.828Z,47.10
2023-04-19T11:43:38.519Z,67.63
2023-04-19T11:46:07.538Z,40.47
2023-04-19T11:48:38.101Z,35.33
2023-04-19T11:51:06.884Z,36.33
2023-04-19T11:53:35.931Z,29.90
2023-04-19T11:56:08.822Z,41.33
2023-04-19T11:58:45.777Z,32.80
2023-04-19T12:01:16.105Z,20.43
2023-04-19T12:03:48.072Z,33.87
2023-04-19T12:06:39.364Z,25.13
2023-04-19T12:09:11.743Z,28.50
2023-04-19T12:11:47.364Z,21.40
2023-04-19T12:14:17.195Z,31.63
2023-04-19T12:16:46.616Z,35.60
2023-04-19T12:19:20.869Z,27.40
2023-04-19T12:21:49.279Z,26.20
2023-04-19T12:24:17.618Z,23.63
2023-04-19T12:26:56.663Z,18.43
2023-04-19T12:29:28.393Z,28.63
2023-04-19T12:31:56.692Z,28.20
2023-04-19T12:34:25.326Z,38.70
2023-04-19T12:36:53.331Z,31.77
2023-04-19T12:39:24.155Z,29.33
2023-04-19T12:41:52.404Z,38.13
2023-04-19T12:44:20.548Z,38.97
2023-04-19T12:46:48.910Z,27.97
2023-04-19T12:49:20.559Z,31.30
2023-04-19T12:51:52.744Z,21.70
2023-04-19T12:54:22.120Z,32.73
2023-04-19T12:56:50.818Z,39.87
2023-04-19T12:59:19.502Z,31.50
2023-04-19T13:01:47.732Z,23.47
2023-04-19T13:04:16.413Z,18.63
2023-04-19T13:06:50.126Z,17.10
2023-04-19T13:09:18.699Z,22.83
2023-04-19T13:11:46.773Z,15.43
2023-04-19T13:14:15.450Z,20.83
2023-04-19T13:16:43.773Z,21.80
2023-04-19T13:19:11.967Z,23.10
2023-04-19T13:21:40.133Z,22.40
2023-04-19T13:24:08.971Z,19.03
2023-04-19T13:26:37.858Z,20.30
2023-04-19T13:29:10.595Z,21.77
2023-04-19T13:31:39.003Z,21.33
2023-04-19T13:34:07.319Z,22.73
2023-04-19T13:36:37.141Z,14.83
2023-04-19T13:39:08.203Z,26.33
2023-04-19T13:41:37.516Z,23.00
2023-04-19T13:44:06.671Z,19.67
2023-04-19T13:46:38.056Z,22.73
2023-04-19T13:49:06.108Z,22.73
2023-04-19T13:51:46.372Z,25.27
2023-04-19T13:54:21.584Z,20.63
2023-04-19T13:56:52.104Z,30.50
2023-04-19T13:59:22.084Z,20.17
2023-04-19T14:01:50.899Z,21.67
2023-04-19T14:04:21.699Z,15.93
2023-04-19T14:06:51.775Z,21.17
2023-04-19T14:09:19.807Z,19.70
2023-04-19T14:11:49.255Z,25.30
2023-04-19T14:14:17.913Z,16.27
2023-04-19T14:16:46.747Z,19.57
2023-04-19T14:19:15.540Z,12.90
2023-04-19T14:21:43.401Z,19.20
2023-04-19T14:24:14.736Z,19.20
2023-04-19T14:26:43.620Z,21.70
2023-04-19T14:29:12.133Z,21.87
2023-04-19T14:31:40.186Z,23.87
2023-04-19T14:34:08.484Z,18.33
2023-04-19T14:36:42.495Z,21.23
2023-04-19T14:39:10.617Z,18.77
2023-04-19T14:41:38.862Z,24.40
2023-04-19T14:44:07.184Z,28.63
2023-04-19T14:46:35.868Z,16.27
2023-04-19T14:49:06.523Z,28.83
2023-04-19T14:51:34.939Z,23.00
2023-04-19T14:54:03.433Z,23.67
2023-04-19T14:56:33.249Z,20.53
2023-04-19T14:59:01.647Z,15.63
2023-04-19T15:01:29.961Z,27.20
2023-04-19T15:03:58.139Z,24.13
2023-04-19T15:06:26.336Z,18.37
2023-04-19T15:08:55.588Z,21.03
2023-04-19T15:11:23.881Z,18.23
2023-04-19T15:13:52.039Z,26.67
2023-04-19T15:16:20.198Z,20.37
2023-04-19T15:18:48.500Z,18.27
2023-04-19T15:21:21.187Z,25.13
2023-04-19T15:23:50.649Z,18.07
2023-04-19T15:26:18.996Z,19.07
2023-04-19T15:28:48.448Z,22.90
2023-04-19T15:31:16.894Z,17.27
2023-04-19T15:33:45.418Z,24.83
2023-04-19T15:36:13.966Z,23.80
2023-04-19T15:38:43.917Z,19.40
2023-04-19T15:41:12.642Z,19.40
2023-04-19T15:43:40.872Z,20.67
2023-04-19T15:46:13.655Z,27.20
2023-04-19T15:48:43.136Z,25.93
2023-04-19T15:51:12.269Z,26.57
2023-04-19T15:53:40.925Z,23.53
2023-04-19T15:56:09.564Z,25.47
2023-04-19T15:58:38.034Z,21.00
2023-04-19T16:01:12.810Z,24.40
2023-04-19T16:03:41.722Z,23.17
2023-04-19T16:06:10.323Z,24.93
2023-04-19T16:08:40.059Z,24.17
2023-04-19T16:11:08.891Z,22.93
2023-04-19T16:13:38.345Z,17.87
2023-04-19T16:16:07.180Z,22.20
2023-04-19T16:18:35.396Z,19.43
2023-04-19T16:21:04.207Z,23.17
2023-04-19T16:23:32.895Z,24.70
2023-04-19T16:26:00.969Z,21.40
2023-04-19T16:28:32.050Z,26.87
2023-04-19T16:31:00.360Z,21.83
2023-04-19T16:33:28.685Z,21.67
2023-04-19T16:35:57.215Z,21.73
2023-04-19T16:38:25.549Z,25.87
2023-04-19T16:40:55.115Z,21.40
2023-04-19T16:43:24.347Z,16.20
2023-04-19T16:45:52.826Z,20.83
2023-04-19T16:48:21.062Z,17.00
2023-04-19T16:50:50.243Z,27.33
2023-04-19T16:53:18.664Z,21.93
2023-04-19T16:55:46.876Z,16.37
2023-04-19T16:58:15.045Z,17.87
2023-04-19T17:00:43.845Z,18.53
2023-04-19T17:03:12.533Z,19.77
2023-04-19T17:05:43.221Z,18.13
2023-04-19T17:08:12.694Z,18.67
2023-04-19T17:10:42.533Z,22.83
2023-04-19T17:13:10.936Z,24.13
2023-04-19T17:15:39.832Z,24.40
2023-04-19T17:18:08.356Z,19.77
2023-04-19T17:20:37.043Z,21.67
2023-04-19T17:23:05.392Z,19.10
2023-04-19T17:25:33.628Z,20.67
2023-04-19T17:28:02.214Z,17.20
2023-04-19T17:30:30.813Z,23.47
2023-04-19T17:32:59.317Z,14.33
2023-04-19T17:35:29.886Z,25.13
2023-04-19T17:37:57.905Z,21.00
2023-04-19T17:40:27.967Z,21.33
2023-04-19T17:42:57.426Z,18.63
2023-04-19T17:45:25.554Z,20.90
2023-04-19T17:47:57.387Z,14.93
2023-04-19T17:50:26.925Z,27.70
2023-04-19T17:52:59.357Z,14.03
2023-04-19T17:55:29.513Z,27.57
2023-04-19T17:57:58.097Z,18.57
2023-04-19T18:00:26.984Z,17.03
2023-04-19T18:02:57.241Z,18.23
2023-04-19T18:05:26.396Z,19.70
2023-04-19T18:07:55.285Z,19.50
2023-04-19T18:10:26.100Z,16.93
2023-04-19T18:12:54.965Z,15.93
2023-04-19T18:15:23.176Z,19.50
2023-04-19T18:17:51.825Z,23.13
2023-04-19T18:20:21.708Z,18.40
2023-04-19T18:22:50.724Z,13.00
2023-04-19T18:25:21.874Z,16.83
2023-04-19T18:27:50.686Z,21.83
2023-04-19T18:30:18.977Z,30.77
2023-04-19T18:32:48.141Z,15.43
2023-04-19T18:35:16.544Z,23.30
2023-04-19T18:37:44.917Z,17.97
2023-04-19T18:40:13.876Z,15.50
2023-04-19T18:42:43.883Z,22.10
2023-04-19T18:45:12.358Z,22.27
2023-04-19T18:47:43.852Z,18.73
2023-04-19T18:50:18.911Z,26.30
2023-04-19T18:52:48.060Z,15.60
2023-04-19T18:55:16.413Z,17.30
2023-04-19T18:57:44.405Z,25.67
2023-04-19T19:00:13.600Z,21.07
2023-04-19T19:02:43.791Z,12.80
2023-04-19T19:05:14.018Z,20.07
2023-04-19T19:07:44.435Z,21.77
2023-04-19T19:10:20.969Z,22.10
2023-04-19T19:12:52.122Z,15.57
2023-04-19T19:15:20.213Z,19.43
2023-04-19T19:17:50.380Z,19.10
2023-04-19T19:20:19.968Z,18.37
2023-04-19T19:22:48.664Z,15.87
2023-04-19T19:25:16.664Z,19.73
2023-04-19T19:28:02.778Z,15.83
2023-04-19T19:30:35.110Z,20.37
2023-04-19T19:33:05.205Z,21.03
2023-04-19T19:35:34.236Z,13.47
2023-04-19T19:38:02.890Z,14.33
2023-04-19T19:40:32.871Z,16.00
2023-04-19T19:43:02.355Z,18.63
2023-04-19T19:45:32.069Z,18.80
2023-04-19T19:48:02.021Z,18.67
2023-04-19T19:53:01.955Z,16.73
2023-04-19T19:55:30.602Z,19.57
2023-04-19T20:03:03.211Z,15.97
2023-04-19T20:05:32.100Z,18.00
2023-04-19T20:08:13.983Z,18.67
2023-04-19T20:10:43.299Z,15.50
2023-04-19T20:13:13.499Z,14.07
2023-04-19T20:15:47.598Z,14.30
2023-04-19T20:18:17.517Z,17.90
2023-04-19T20:20:45.855Z,20.40
2023-04-19T20:23:16.584Z,15.13
2023-04-19T20:25:44.615Z,16.97
2023-04-19T20:28:13.141Z,16.67
2023-04-19T20:30:41.841Z,17.63
2023-04-19T20:33:10.151Z,16.13
2023-04-19T20:35:38.416Z,15.73
2023-04-19T20:38:08.099Z,20.97
2023-04-19T20:40:36.575Z,18.13
2023-04-19T20:43:04.814Z,18.33
2023-04-19T20:45:34.366Z,17.47
2023-04-19T20:48:03.446Z,14.73
2023-04-19T20:50:31.760Z,16.90
2023-04-19T20:53:00.123Z,20.77
2023-04-19T20:55:28.454Z,17.57
2023-04-19T20:57:56.624Z,18.20
2023-04-19T21:00:25.261Z,19.03
2023-04-19T21:02:54.189Z,14.03
2023-04-19T21:05:22.605Z,17.17
2023-04-19T21:07:50.684Z,17.47
2023-04-19T21:10:19.762Z,21.83
2023-04-19T21:12:48.564Z,16.13
2023-04-19T21:15:17.167Z,16.07
2023-04-19T21:17:45.628Z,14.33
2023-04-19T21:20:18.441Z,15.90
2023-04-19T21:22:47.525Z,14.30
2023-04-19T21:25:15.770Z,16.33
2023-04-19T21:27:47.098Z,13.90
2023-04-19T21:30:15.789Z,18.17
2023-04-19T21:32:46.346Z,14.63
2023-04-19T21:35:14.884Z,14.63
2023-04-19T21:37:43.638Z,15.00
2023-04-19T21:40:14.310Z,17.27
2023-04-19T21:42:42.277Z,19.00
2023-04-19T21:45:16.314Z,21.43
2023-04-19T21:47:44.699Z,13.63
2023-04-19T21:50:13.219Z,15.70
2023-04-19T21:52:41.956Z,23.03
2023-04-19T21:55:10.326Z,14.07
2023-04-19T21:57:38.774Z,20.23
2023-04-19T22:00:11.743Z,13.63
2023-04-19T22:02:42.231Z,15.67
2023-04-19T22:05:10.598Z,13.87
2023-04-19T22:07:40.397Z,19.67
2023-04-19T22:10:09.398Z,23.00
2023-04-19T22:12:47.959Z,13.47
2023-04-19T22:15:27.335Z,18.87
2023-04-19T22:17:57.813Z,17.30
2023-04-19T22:20:27.143Z,17.00
2023-04-19T22:22:56.734Z,18.70
2023-04-19T22:25:25.178Z,17.53
2023-04-19T22:27:53.736Z,23.13
2023-04-19T22:30:21.885Z,15.77
2023-04-19T22:32:52.608Z,19.73
2023-04-19T22:35:22.666Z,14.77
2023-04-19T22:37:51.295Z,13.97
2023-04-19T22:40:19.443Z,18.33
2023-04-19T22:42:47.643Z,17.40
2023-04-19T22:45:16.043Z,21.33
2023-04-19T22:47:44.367Z,15.00
2023-04-19T22:50:12.620Z,9.07
2023-04-19T22:52:44.799Z,19.80
2023-04-19T22:55:13.256Z,14.13
2023-04-19T22:57:43.354Z,16.30
2023-04-19T23:00:13.811Z,17.23
2023-04-19T23:02:43.102Z,16.80
2023-04-19T23:05:11.765Z,19.50
2023-04-19T23:07:42.287Z,19.83
2023-04-19T23:10:11.025Z,17.47
2023-04-19T23:12:39.558Z,19.37
2023-04-19T23:15:08.865Z,14.03
2023-04-19T23:17:42.467Z,25.77
2023-04-19T23:20:11.647Z,22.60
2023-04-19T23:22:40.692Z,20.03
2023-04-19T23:25:09.809Z,24.57
2023-04-19T23:27:38.488Z,22.40
2023-04-19T23:30:07.996Z,15.63
2023-04-19T23:32:36.493Z,20.03
2023-04-19T23:35:05.070Z,19.87
2023-04-19T23:37:33.810Z,14.97
2023-04-19T23:40:01.953Z,19.87
2023-04-19T23:42:30.217Z,16.33
2023-04-19T23:44:58.128Z,19.40
2023-04-19T23:47:29.250Z,14.33
2023-04-19T23:49:57.591Z,18.27
2023-04-19T23:52:25.955Z,22.37
2023-04-19T23:54:54.209Z,21.13
2023-04-19T23:57:26.389Z,22.57
2023-04-19T23:59:54.588Z,23.20
